Terminal Aerodrome Forecast
Issued by NWS Sioux Falls, SD

Home | Current Version | Previous Version | Text Only | Print | Product List | Glossary On
Versions: 1 2 3 4 5 6 7 8 9 10 11 12 13 14 15 16 17 18 19
000
FTUS43 KFSD 241735
TAFFSD
TAF
KFSD 241735Z 2418/2518 18018G25KT P6SM SCT035 OVC200
     FM242200 21015G25KT P6SM BKN100
     FM250000 24011KT P6SM BKN100
     FM250100 26010KT P6SM SCT120
     FM250400 32008KT P6SM SCT200
     FM250600 35009KT P6SM SCT250
     FM251300 02011KT P6SM BKN025
     FM251600 02012KT 6SM -RA BKN015=

USA.gov is the U.S. government's official web portal to all federal, state and local government web resources and services.